sensor_id;sensor_type;location;lat;lon;timestamp;pressure;altitude;pressure_sealevel;temperature;humidity
42111;BME280;27766;52.174;5.456;2023-08-07T00:02:12;101123.69;;;13.44;100.00
42111;BME280;27766;52.174;5.456;2023-08-07T00:04:39;101127.19;;;13.50;100.00
42111;BME280;27766;52.174;5.456;2023-08-07T00:07:06;101124.63;;;13.54;100.00
42111;BME280;27766;52.174;5.456;2023-08-07T00:09:33;101114.97;;;13.41;100.00
42111;BME280;27766;52.174;5.456;2023-08-07T00:12:01;101129.78;;;13.50;100.00
42111;BME280;27766;52.174;5.456;2023-08-07T00:14:28;101128.94;;;13.48;100.00
42111;BME280;27766;52.174;5.456;2023-08-07T00:16:55;101138.41;;;13.44;100.00
42111;BME280;27766;52.174;5.456;2023-08-07T00:19:22;101132.44;;;13.53;100.00
42111;BME280;27766;52.174;5.456;2023-08-07T00:21:49;101134.19;;;13.54;100.00
42111;BME280;27766;52.174;5.456;2023-08-07T00:24:16;101128.13;;;13.55;100.00
42111;BME280;27766;52.174;5.456;2023-08-07T00:26:43;101129.91;;;13.60;100.00
42111;BME280;27766;52.174;5.456;2023-08-07T00:29:11;101135.13;;;13.62;100.00
42111;BME280;27766;52.174;5.456;2023-08-07T00:31:38;101132.38;;;13.50;100.00
42111;BME280;27766;52.174;5.456;2023-08-07T00:34:05;101133.22;;;13.47;100.00
42111;BME280;27766;52.174;5.456;2023-08-07T00:36:32;101136.78;;;13.52;100.00
42111;BME280;27766;52.174;5.456;2023-08-07T00:39:02;101133.22;;;13.44;100.00
42111;BME280;27766;52.174;5.456;2023-08-07T00:41:32;101136.72;;;13.49;100.00
42111;BME280;27766;52.174;5.456;2023-08-07T00:44:00;101129.72;;;13.42;100.00
42111;BME280;27766;52.174;5.456;2023-08-07T00:46:29;101123.72;;;13.48;100.00
42111;BME280;27766;52.174;5.456;2023-08-07T00:48:57;101136.72;;;13.49;100.00
42111;BME280;27766;52.174;5.456;2023-08-07T00:51:24;101135.88;;;13.52;100.00
42111;BME280;27766;52.174;5.456;2023-08-07T00:53:51;101135.88;;;13.52;100.00
42111;BME280;27766;52.174;5.456;2023-08-07T00:56:19;101134.91;;;13.42;100.00
42111;BME280;27766;52.174;5.456;2023-08-07T00:58:47;101127.19;;;13.48;100.00
42111;BME280;27766;52.174;5.456;2023-08-07T01:01:15;101132.44;;;13.54;100.00
42111;BME280;27766;52.174;5.456;2023-08-07T01:03:42;101132.34;;;13.45;100.00
42111;BME280;27766;52.174;5.456;2023-08-07T01:06:10;101130.63;;;13.47;100.00
42111;BME280;27766;52.174;5.456;2023-08-07T01:08:37;101142.00;;;13.57;100.00
42111;BME280;27766;52.174;5.456;2023-08-07T01:16:48;101128.97;;;13.54;100.00
42111;BME280;27766;52.174;5.456;2023-08-07T01:19:25;101147.28;;;13.65;100.00
42111;BME280;27766;52.174;5.456;2023-08-07T01:22:07;101146.44;;;13.67;100.00
42111;BME280;27766;52.174;5.456;2023-08-07T01:24:38;101147.34;;;13.68;100.00
42111;BME280;27766;52.174;5.456;2023-08-07T01:30:26;101155.19;;;13.74;100.00
42111;BME280;27766;52.174;5.456;2023-08-07T01:33:09;101153.41;;;13.68;100.00
42111;BME280;27766;52.174;5.456;2023-08-07T01:35:44;101143.78;;;13.59;100.00
42111;BME280;27766;52.174;5.456;2023-08-07T01:38:13;101156.91;;;13.72;100.00
42111;BME280;27766;52.174;5.456;2023-08-07T01:40:42;101147.34;;;13.68;100.00
42111;BME280;27766;52.174;5.456;2023-08-07T01:43:09;101156.91;;;13.72;100.00
42111;BME280;27766;52.174;5.456;2023-08-07T01:45:37;101154.25;;;13.67;100.00
42111;BME280;27766;52.174;5.456;2023-08-07T01:48:04;101150.84;;;13.76;100.00
42111;BME280;27766;52.174;5.456;2023-08-07T01:50:31;101150.84;;;13.73;100.00
42111;BME280;27766;52.174;5.456;2023-08-07T01:52:58;101146.53;;;13.76;100.00
42111;BME280;27766;52.174;5.456;2023-08-07T01:55:26;101152.72;;;13.88;100.00
42111;BME280;27766;52.174;5.456;2023-08-07T01:57:53;101170.06;;;13.89;100.00
42111;BME280;27766;52.174;5.456;2023-08-07T02:00:20;101164.00;;;13.88;100.00
42111;BME280;27766;52.174;5.456;2023-08-07T02:02:48;101175.25;;;13.87;100.00
42111;BME280;27766;52.174;5.456;2023-08-07T02:05:16;101162.22;;;13.84;100.00
42111;BME280;27766;52.174;5.456;2023-08-07T02:07:44;101164.75;;;13.78;100.00
42111;BME280;27766;52.174;5.456;2023-08-07T02:10:11;101159.56;;;13.75;100.00
42111;BME280;27766;52.174;5.456;2023-08-07T02:12:39;101172.56;;;13.80;100.00
42111;BME280;27766;52.174;5.456;2023-08-07T02:15:06;101165.59;;;13.74;100.00
42111;BME280;27766;52.174;5.456;2023-08-07T02:17:34;101172.47;;;13.69;100.00
42111;BME280;27766;52.174;5.456;2023-08-07T02:20:03;101177.63;;;13.64;100.00
42111;BME280;27766;52.174;5.456;2023-08-07T02:22:30;101180.25;;;13.66;100.00
42111;BME280;27766;52.174;5.456;2023-08-07T02:24:57;101171.50;;;13.60;100.00
42111;BME280;27766;52.174;5.456;2023-08-07T02:27:25;101170.66;;;13.61;100.00
42111;BME280;27766;52.174;5.456;2023-08-07T02:29:52;101165.38;;;13.54;100.00
42111;BME280;27766;52.174;5.456;2023-08-07T02:32:19;101161.03;;;13.54;100.00
42111;BME280;27766;52.174;5.456;2023-08-07T02:34:47;101154.97;;;13.52;100.00
42111;BME280;27766;52.174;5.456;2023-08-07T02:37:14;101168.03;;;13.58;100.00
42111;BME280;27766;52.174;5.456;2023-08-07T02:39:41;101174.94;;;13.56;100.00
42111;BME280;27766;52.174;5.456;2023-08-07T02:42:09;101179.34;;;13.62;100.00
42111;BME280;27766;52.174;5.456;2023-08-07T02:44:36;101168.91;;;13.59;100.00
42111;BME280;27766;52.174;5.456;2023-08-07T02:47:04;101173.34;;;13.68;100.00
42111;BME280;27766;52.174;5.456;2023-08-07T02:49:31;101167.97;;;13.52;100.00
42111;BME280;27766;52.174;5.456;2023-08-07T02:51:58;101162.84;;;13.58;100.00
42111;BME280;27766;52.174;5.456;2023-08-07T02:54:25;101177.50;;;13.53;100.00
42111;BME280;27766;52.174;5.456;2023-08-07T02:56:52;101174.94;;;13.56;100.00
42111;BME280;27766;52.174;5.456;2023-08-07T02:59:21;101180.19;;;13.59;100.00
42111;BME280;27766;52.174;5.456;2023-08-07T03:01:50;101174.03;;;13.51;100.00
42111;BME280;27766;52.174;5.456;2023-08-07T03:04:17;101167.88;;;13.46;100.00
42111;BME280;27766;52.174;5.456;2023-08-07T03:06:44;101165.38;;;13.52;100.00
42111;BME280;27766;52.174;5.456;2023-08-07T03:09:11;101161.84;;;13.49;100.00
42111;BME280;27766;52.174;5.456;2023-08-07T03:11:38;101165.38;;;13.52;100.00
42111;BME280;27766;52.174;5.456;2023-08-07T03:14:05;101160.19;;;13.52;100.00
42111;BME280;27766;52.174;5.456;2023-08-07T03:16:32;101156.72;;;13.55;100.00
42111;BME280;27766;52.174;5.456;2023-08-07T03:19:00;101154.03;;;13.47;100.00
42111;BME280;27766;52.174;5.456;2023-08-07T03:21:27;101157.63;;;13.58;100.00
42111;BME280;27766;52.174;5.456;2023-08-07T03:23:54;101146.22;;;13.47;100.00
42111;BME280;27766;52.174;5.456;2023-08-07T03:26:21;101162.81;;;13.57;100.00
42111;BME280;27766;52.174;5.456;2023-08-07T03:28:48;101158.38;;;13.50;100.00
42111;BME280;27766;52.174;5.456;2023-08-07T03:31:16;101141.88;;;13.43;100.00
42111;BME280;27766;52.174;5.456;2023-08-07T03:33:44;101151.53;;;13.55;100.00
42111;BME280;27766;52.174;5.456;2023-08-07T03:36:11;101154.09;;;13.53;100.00
42111;BME280;27766;52.174;5.456;2023-08-07T03:38:38;101149.84;;;13.60;100.00
42111;BME280;27766;52.174;5.456;2023-08-07T03:41:05;101153.22;;;13.51;100.00
42111;BME280;27766;52.174;5.456;2023-08-07T03:43:33;101161.09;;;13.56;100.00
42111;BME280;27766;52.174;5.456;2023-08-07T03:46:00;101134.94;;;13.45;100.00
42111;BME280;27766;52.174;5.456;2023-08-07T03:48:30;101154.09;;;13.50;100.00
42111;BME280;27766;52.174;5.456;2023-08-07T03:51:05;101156.69;;;13.50;100.00
42111;BME280;27766;52.174;5.456;2023-08-07T03:53:35;101155.78;;;13.50;100.00
42111;BME280;27766;52.174;5.456;2023-08-07T03:56:02;101157.53;;;13.51;100.00
42111;BME280;27766;52.174;5.456;2023-08-07T03:58:29;101162.78;;;13.55;100.00
42111;BME280;27766;52.174;5.456;2023-08-07T04:00:56;101157.59;;;13.54;100.00
42111;BME280;27766;52.174;5.456;2023-08-07T04:03:24;101163.69;;;13.57;100.00
42111;BME280;27766;52.174;5.456;2023-08-07T04:05:52;101164.59;;;13.61;100.00
42111;BME280;27766;52.174;5.456;2023-08-07T04:08:21;101166.28;;;13.57;100.00
42111;BME280;27766;52.174;5.456;2023-08-07T04:11:02;101167.19;;;13.59;100.00
42111;BME280;27766;52.174;5.456;2023-08-07T04:13:30;101168.94;;;13.62;100.00
42111;BME280;27766;52.174;5.456;2023-08-07T04:15:58;101156.72;;;13.55;100.00
42111;BME280;27766;52.174;5.456;2023-08-07T04:18:26;101169.75;;;13.58;100.00
42111;BME280;27766;52.174;5.456;2023-08-07T04:20:54;101169.75;;;13.56;100.00
42111;BME280;27766;52.174;5.456;2023-08-07T04:23:23;101168.09;;;13.65;100.00
42111;BME280;27766;52.174;5.456;2023-08-07T04:25:51;101165.44;;;13.60;100.00
42111;BME280;27766;52.174;5.456;2023-08-07T04:28:19;101169.81;;;13.64;100.00
42111;BME280;27766;52.174;5.456;2023-08-07T04:30:49;101169.88;;;13.69;100.00
42111;BME280;27766;52.174;5.456;2023-08-07T04:33:20;101175.00;;;13.59;100.00
42111;BME280;27766;52.174;5.456;2023-08-07T04:35:48;101172.34;;;13.56;100.00
42111;BME280;27766;52.174;5.456;2023-08-07T04:38:16;101188.97;;;13.68;100.00
42111;BME280;27766;52.174;5.456;2023-08-07T04:40:47;101192.41;;;13.67;100.00
42111;BME280;27766;52.174;5.456;2023-08-07T04:43:18;101188.13;;;13.73;100.00
42111;BME280;27766;52.174;5.456;2023-08-07T04:45:49;101195.13;;;13.77;100.00
42111;BME280;27766;52.174;5.456;2023-08-07T04:48:16;101195.97;;;13.75;100.00
42111;BME280;27766;52.174;5.456;2023-08-07T04:50:45;101201.16;;;13.75;100.00
42111;BME280;27766;52.174;5.456;2023-08-07T04:53:12;101201.13;;;13.73;100.00
42111;BME280;27766;52.174;5.456;2023-08-07T04:55:39;101197.72;;;13.77;100.00
42111;BME280;27766;52.174;5.456;2023-08-07T04:58:07;101197.81;;;13.87;100.00
42111;BME280;27766;52.174;5.456;2023-08-07T05:00:34;101196.94;;;13.88;100.00
42111;BME280;27766;52.174;5.456;2023-08-07T05:03:01;101203.88;;;13.86;100.00
42111;BME280;27766;52.174;5.456;2023-08-07T05:05:29;101206.44;;;13.84;100.00
42111;BME280;27766;52.174;5.456;2023-08-07T05:07:57;101212.50;;;13.83;100.00
42111;BME280;27766;52.174;5.456;2023-08-07T05:10:25;101212.59;;;13.91;100.00
42111;BME280;27766;52.174;5.456;2023-08-07T05:12:52;101223.03;;;13.94;100.00
42111;BME280;27766;52.174;5.456;2023-08-07T05:15:23;101229.97;;;13.93;100.00
42111;BME280;27766;52.174;5.456;2023-08-07T05:17:51;101231.75;;;13.99;100.00
42111;BME280;27766;52.174;5.456;2023-08-07T05:20:19;101237.66;;;13.84;100.00
42111;BME280;27766;52.174;5.456;2023-08-07T05:22:46;101233.41;;;13.91;100.00
42111;BME280;27766;52.174;5.456;2023-08-07T05:25:14;101243.81;;;13.91;100.00
42111;BME280;27766;52.174;5.456;2023-08-07T05:27:46;101246.25;;;13.77;100.00
42111;BME280;27766;52.174;5.456;2023-08-07T05:30:14;101238.56;;;13.85;100.00
42111;BME280;27766;52.174;5.456;2023-08-07T05:32:41;101235.00;;;13.80;100.00
42111;BME280;27766;52.174;5.456;2023-08-07T05:35:09;101236.88;;;13.90;100.00
42111;BME280;27766;52.174;5.456;2023-08-07T05:37:36;101237.50;;;13.69;100.00
42111;BME280;27766;52.174;5.456;2023-08-07T05:40:05;101249.81;;;13.82;100.00
42111;BME280;27766;52.174;5.456;2023-08-07T05:42:32;101249.81;;;13.84;100.00
42111;BME280;27766;52.174;5.456;2023-08-07T05:44:59;101256.81;;;13.89;100.00
42111;BME280;27766;52.174;5.456;2023-08-07T05:47:27;101261.97;;;13.85;100.00
42111;BME280;27766;52.174;5.456;2023-08-07T05:49:54;101270.69;;;13.91;100.00
42111;BME280;27766;52.174;5.456;2023-08-07T05:52:21;101256.84;;;13.92;100.00
42111;BME280;27766;52.174;5.456;2023-08-07T05:54:49;101257.66;;;13.88;100.00
42111;BME280;27766;52.174;5.456;2023-08-07T05:57:17;101250.72;;;13.87;100.00
42111;BME280;27766;52.174;5.456;2023-08-07T05:59:45;101258.53;;;13.87;100.00
42111;BME280;27766;52.174;5.456;2023-08-07T06:02:15;101269.91;;;13.99;100.00
42111;BME280;27766;52.174;5.456;2023-08-07T06:04:46;101266.50;;;14.04;100.00
42111;BME280;27766;52.174;5.456;2023-08-07T06:07:13;101269.16;;;14.11;100.00
42111;BME280;27766;52.174;5.456;2023-08-07T06:09:40;101269.91;;;13.97;100.00
42111;BME280;27766;52.174;5.456;2023-08-07T06:12:08;101279.56;;;14.11;100.00
42111;BME280;27766;52.174;5.456;2023-08-07T06:14:37;101276.06;;;14.07;100.00
42111;BME280;27766;52.174;5.456;2023-08-07T06:17:04;101273.47;;;14.07;100.00
42111;BME280;27766;52.174;5.456;2023-08-07T06:19:31;101274.47;;;14.18;100.00
42111;BME280;27766;52.174;5.456;2023-08-07T06:21:59;101273.56;;;14.16;100.00
42111;BME280;27766;52.174;5.456;2023-08-07T06:24:28;101282.38;;;14.28;100.00
42111;BME280;27766;52.174;5.456;2023-08-07T06:26:55;101288.50;;;14.33;100.00
42111;BME280;27766;52.174;5.456;2023-08-07T06:29:22;101279.78;;;14.29;100.00
42111;BME280;27766;52.174;5.456;2023-08-07T06:31:50;101290.38;;;14.48;100.00
42111;BME280;27766;52.174;5.456;2023-08-07T06:34:17;101298.19;;;14.51;100.00
42111;BME280;27766;52.174;5.456;2023-08-07T06:36:44;101302.72;;;14.66;100.00
42111;BME280;27766;52.174;5.456;2023-08-07T06:39:12;101301.06;;;14.74;100.00
42111;BME280;27766;52.174;5.456;2023-08-07T06:41:39;101306.22;;;14.71;100.00
42111;BME280;27766;52.174;5.456;2023-08-07T06:44:06;101302.03;;;14.90;100.00
42111;BME280;27766;52.174;5.456;2023-08-07T06:46:33;101306.44;;;14.96;100.00
42111;BME280;27766;52.174;5.456;2023-08-07T06:49:01;101315.19;;;15.07;100.00
42111;BME280;27766;52.174;5.456;2023-08-07T06:51:28;101312.63;;;15.16;100.00
42111;BME280;27766;52.174;5.456;2023-08-07T06:53:55;101319.63;;;15.24;100.00
42111;BME280;27766;52.174;5.456;2023-08-07T06:56:23;101323.09;;;15.21;100.00
42111;BME280;27766;52.174;5.456;2023-08-07T06:58:50;101317.88;;;15.23;100.00
42111;BME280;27766;52.174;5.456;2023-08-07T07:01:17;101308.41;;;15.37;100.00
42111;BME280;27766;52.174;5.456;2023-08-07T07:03:44;101326.63;;;15.31;100.00
42111;BME280;27766;52.174;5.456;2023-08-07T07:06:14;101317.06;;;15.30;100.00
42111;BME280;27766;52.174;5.456;2023-08-07T07:08:41;101332.72;;;15.30;100.00
42111;BME280;27766;52.174;5.456;2023-08-07T07:11:09;101338.00;;;15.36;100.00
42111;BME280;27766;52.174;5.456;2023-08-07T07:13:37;101337.03;;;15.25;100.00
42111;BME280;27766;52.174;5.456;2023-08-07T07:16:04;101349.91;;;15.03;100.00
42111;BME280;27766;52.174;5.456;2023-08-07T07:18:31;101357.81;;;15.12;100.00
42111;BME280;27766;52.174;5.456;2023-08-07T07:20:59;101358.50;;;14.94;100.00
42111;BME280;27766;52.174;5.456;2023-08-07T07:23:27;101366.28;;;14.85;100.00
42111;BME280;27766;52.174;5.456;2023-08-07T07:25:55;101360.22;;;14.91;100.00
42111;BME280;27766;52.174;5.456;2023-08-07T07:28:22;101369.75;;;14.87;100.00
42111;BME280;27766;52.174;5.456;2023-08-07T07:30:50;101371.34;;;14.72;100.00
42111;BME280;27766;52.174;5.456;2023-08-07T07:33:17;101378.19;;;14.63;100.00
42111;BME280;27766;52.174;5.456;2023-08-07T07:35:45;101382.63;;;14.67;100.00
42111;BME280;27766;52.174;5.456;2023-08-07T07:38:12;101386.00;;;14.63;100.00
42111;BME280;27766;52.174;5.456;2023-08-07T07:40:39;101381.88;;;14.79;100.00
42111;BME280;27766;52.174;5.456;2023-08-07T07:43:07;101394.16;;;14.94;100.00
42111;BME280;27766;52.174;5.456;2023-08-07T07:45:34;101389.88;;;15.02;100.00
42111;BME280;27766;52.174;5.456;2023-08-07T07:48:03;101391.78;;;15.26;100.00
42111;BME280;27766;52.174;5.456;2023-08-07T07:50:30;101384.03;;;15.32;100.00
42111;BME280;27766;52.174;5.456;2023-08-07T07:52:58;101390.97;;;15.30;100.00
42111;BME280;27766;52.174;5.456;2023-08-07T07:55:25;101390.19;;;15.45;100.00
42111;BME280;27766;52.174;5.456;2023-08-07T07:57:53;101392.97;;;15.75;100.00
42111;BME280;27766;52.174;5.456;2023-08-07T08:00:22;101381.72;;;15.80;100.00
42111;BME280;27766;52.174;5.456;2023-08-07T08:02:53;101394.94;;;16.18;100.00
42111;BME280;27766;52.174;5.456;2023-08-07T08:05:21;101390.63;;;16.20;100.00
42111;BME280;27766;52.174;5.456;2023-08-07T08:07:48;101402.69;;;15.96;100.00
42111;BME280;27766;52.174;5.456;2023-08-07T08:10:15;101409.59;;;15.91;100.00
42111;BME280;27766;52.174;5.456;2023-08-07T08:12:43;101414.66;;;15.64;100.00
42111;BME280;27766;52.174;5.456;2023-08-07T08:15:11;101408.97;;;14.99;100.00
42111;BME280;27766;52.174;5.456;2023-08-07T08:17:38;101413.88;;;14.67;100.00
42111;BME280;27766;52.174;5.456;2023-08-07T08:20:07;101415.34;;;14.43;100.00
42111;BME280;27766;52.174;5.456;2023-08-07T08:22:35;101417.03;;;14.41;100.00
42111;BME280;27766;52.174;5.456;2023-08-07T08:25:02;101422.47;;;14.60;100.00
42111;BME280;27766;52.174;5.456;2023-08-07T08:27:31;101423.53;;;14.77;100.00
42111;BME280;27766;52.174;5.456;2023-08-07T08:29:58;101424.50;;;14.88;100.00
42111;BME280;27766;52.174;5.456;2023-08-07T08:32:26;101421.88;;;14.87;100.00
42111;BME280;27766;52.174;5.456;2023-08-07T08:34:53;101431.56;;;15.02;100.00
42111;BME280;27766;52.174;5.456;2023-08-07T08:37:21;101436.19;;;15.32;100.00
42111;BME280;27766;52.174;5.456;2023-08-07T08:39:48;101435.38;;;15.44;100.00
42111;BME280;27766;52.174;5.456;2023-08-07T08:42:16;101432.13;;;15.76;100.00
42111;BME280;27766;52.174;5.456;2023-08-07T08:44:55;101432.25;;;15.89;100.00
42111;BME280;27766;52.174;5.456;2023-08-07T08:47:24;101441.91;;;16.07;100.00
42111;BME280;27766;52.174;5.456;2023-08-07T08:50:01;101439.31;;;16.14;100.00
42111;BME280;27766;52.174;5.456;2023-08-07T08:52:31;101438.47;;;16.12;100.00
42111;BME280;27766;52.174;5.456;2023-08-07T08:54:58;101442.66;;;15.86;100.00
42111;BME280;27766;52.174;5.456;2023-08-07T08:57:26;101455.53;;;15.67;100.00
42111;BME280;27766;52.174;5.456;2023-08-07T08:59:55;101467.63;;;15.52;100.00
42111;BME280;27766;52.174;5.456;2023-08-07T09:02:22;101458.78;;;15.33;100.00
42111;BME280;27766;52.174;5.456;2023-08-07T09:04:50;101458.00;;;15.45;100.00
42111;BME280;27766;52.174;5.456;2023-08-07T09:07:20;101464.97;;;15.46;100.00
42111;BME280;27766;52.174;5.456;2023-08-07T09:09:49;101459.78;;;15.52;100.00
42111;BME280;27766;52.174;5.456;2023-08-07T09:12:20;101471.13;;;15.55;100.00
42111;BME280;27766;52.174;5.456;2023-08-07T09:14:54;101468.56;;;15.61;100.00
42111;BME280;27766;52.174;5.456;2023-08-07T09:17:37;101473.81;;;15.62;100.00
42111;BME280;27766;52.174;5.456;2023-08-07T09:20:06;101475.56;;;15.68;100.00
42111;BME280;27766;52.174;5.456;2023-08-07T09:22:39;101491.34;;;15.83;100.00
42111;BME280;27766;52.174;5.456;2023-08-07T09:25:07;101475.00;;;16.08;100.00
42111;BME280;27766;52.174;5.456;2023-08-07T09:27:34;101483.84;;;16.38;100.00
42111;BME280;27766;52.174;5.456;2023-08-07T09:30:05;101482.19;;;16.63;100.00
42111;BME280;27766;52.174;5.456;2023-08-07T09:32:34;101486.56;;;16.69;100.00
42111;BME280;27766;52.174;5.456;2023-08-07T09:35:03;101488.31;;;16.71;100.00
42111;BME280;27766;52.174;5.456;2023-08-07T09:37:31;101488.25;;;16.54;100.00
42111;BME280;27766;52.174;5.456;2023-08-07T09:40:01;101495.97;;;16.28;100.00
42111;BME280;27766;52.174;5.456;2023-08-07T09:42:32;101494.16;;;16.14;100.00
42111;BME280;27766;52.174;5.456;2023-08-07T09:45:00;101496.75;;;16.11;100.00
42111;BME280;27766;52.174;5.456;2023-08-07T09:47:28;101494.09;;;16.01;100.00
42111;BME280;27766;52.174;5.456;2023-08-07T09:49:56;101498.50;;;16.12;100.00
42111;BME280;27766;52.174;5.456;2023-08-07T09:52:24;101505.47;;;16.18;100.00
42111;BME280;27766;52.174;5.456;2023-08-07T09:54:55;101508.97;;;16.22;100.00
42111;BME280;27766;52.174;5.456;2023-08-07T09:57:22;101523.78;;;16.23;100.00
42111;BME280;27766;52.174;5.456;2023-08-07T09:59:50;101517.69;;;16.21;100.00
42111;BME280;27766;52.174;5.456;2023-08-07T10:02:19;101533.34;;;16.18;100.00
42111;BME280;27766;52.174;5.456;2023-08-07T10:04:48;101521.88;;;15.95;100.00
42111;BME280;27766;52.174;5.456;2023-08-07T10:07:17;101527.25;;;16.16;100.00
42111;BME280;27766;52.174;5.456;2023-08-07T10:09:45;101522.00;;;16.17;100.00
42111;BME280;27766;52.174;5.456;2023-08-07T10:12:13;101517.69;;;16.18;100.00
42111;BME280;27766;52.174;5.456;2023-08-07T10:14:41;101529.06;;;16.26;100.00
42111;BME280;27766;52.174;5.456;2023-08-07T10:17:09;101520.44;;;16.44;100.00
42111;BME280;27766;52.174;5.456;2023-08-07T10:19:37;101530.81;;;16.32;100.00
42111;BME280;27766;52.174;5.456;2023-08-07T10:22:06;101524.75;;;16.36;100.00
42111;BME280;27766;52.174;5.456;2023-08-07T10:24:35;101516.06;;;16.44;100.00
42111;BME280;27766;52.174;5.456;2023-08-07T10:27:05;101531.72;;;16.35;100.00
42111;BME280;27766;52.174;5.456;2023-08-07T10:29:34;101533.41;;;16.30;100.00
42111;BME280;27766;52.174;5.456;2023-08-07T10:32:02;101530.00;;;16.46;100.00
42111;BME280;27766;52.174;5.456;2023-08-07T10:34:33;101515.28;;;16.70;100.00
42111;BME280;27766;52.174;5.456;2023-08-07T10:37:00;101519.66;;;16.71;100.00
42111;BME280;27766;52.174;5.456;2023-08-07T10:39:27;101510.97;;;16.85;100.00
42111;BME280;27766;52.174;5.456;2023-08-07T10:41:55;101516.31;;;17.03;100.00
42111;BME280;27766;52.174;5.456;2023-08-07T10:44:24;101521.53;;;17.16;100.00
42111;BME280;27766;52.174;5.456;2023-08-07T10:46:53;101530.16;;;16.90;100.00
42111;BME280;27766;52.174;5.456;2023-08-07T10:49:40;101524.81;;;16.59;100.00
42111;BME280;27766;52.174;5.456;2023-08-07T10:52:12;101544.78;;;16.38;100.00
42111;BME280;27766;52.174;5.456;2023-08-07T10:54:45;101547.31;;;16.29;100.00
42111;BME280;27766;52.174;5.456;2023-08-07T10:57:14;101548.06;;;16.05;100.00
42111;BME280;27766;52.174;5.456;2023-08-07T11:02:24;101536.94;;;16.38;100.00
42111;BME280;27766;52.174;5.456;2023-08-07T11:04:54;101530.84;;;16.39;100.00
42111;BME280;27766;52.174;5.456;2023-08-07T11:07:26;101535.28;;;16.59;100.00
42111;BME280;27766;52.174;5.456;2023-08-07T11:09:55;101546.66;;;16.63;100.00
42111;BME280;27766;52.174;5.456;2023-08-07T11:12:26;101555.28;;;16.55;100.00
42111;BME280;27766;52.174;5.456;2023-08-07T11:14:56;101556.94;;;16.35;100.00
42111;BME280;27766;52.174;5.456;2023-08-07T11:17:25;101567.34;;;16.24;100.00
42111;BME280;27766;52.174;5.456;2023-08-07T11:19:53;101542.19;;;16.44;100.00
42111;BME280;27766;52.174;5.456;2023-08-07T11:22:24;101553.69;;;16.81;100.00
42111;BME280;27766;52.174;5.456;2023-08-07T11:24:51;101545.06;;;17.08;100.00
42111;BME280;27766;52.174;5.456;2023-08-07T11:27:21;101543.38;;;17.33;100.00
42111;BME280;27766;52.174;5.456;2023-08-07T11:29:50;101538.97;;;17.14;100.00
42111;BME280;27766;52.174;5.456;2023-08-07T11:32:20;101551.94;;;16.81;100.00
42111;BME280;27766;52.174;5.456;2023-08-07T11:34:49;101563.19;;;16.71;100.00
42111;BME280;27766;52.174;5.456;2023-08-07T11:37:17;101565.09;;;16.95;100.00
42111;BME280;27766;52.174;5.456;2023-08-07T11:39:47;101545.91;;;16.93;100.00
42111;BME280;27766;52.174;5.456;2023-08-07T11:42:16;101556.38;;;17.05;100.00
42111;BME280;27766;52.174;5.456;2023-08-07T11:44:43;101562.50;;;17.04;100.00
42111;BME280;27766;52.174;5.456;2023-08-07T11:47:11;101563.16;;;16.60;100.00
42111;BME280;27766;52.174;5.456;2023-08-07T11:49:39;101566.59;;;16.43;100.00
42111;BME280;27766;52.174;5.456;2023-08-07T11:52:06;101560.50;;;16.49;100.00
42111;BME280;27766;52.174;5.456;2023-08-07T11:54:34;101570.94;;;16.48;100.00
42111;BME280;27766;52.174;5.456;2023-08-07T11:57:01;101557.91;;;16.54;100.00
42111;BME280;27766;52.174;5.456;2023-08-07T11:59:29;101558.78;;;16.57;100.00
42111;BME280;27766;52.174;5.456;2023-08-07T12:01:56;101557.84;;;16.44;100.00
42111;BME280;27766;52.174;5.456;2023-08-07T12:04:24;101554.41;;;16.50;100.00
42111;BME280;27766;52.174;5.456;2023-08-07T12:06:55;101556.19;;;16.56;100.00
42111;BME280;27766;52.174;5.456;2023-08-07T12:09:25;101550.09;;;16.60;100.00
42111;BME280;27766;52.174;5.456;2023-08-07T12:11:59;101552.88;;;17.00;100.00
42111;BME280;27766;52.174;5.456;2023-08-07T12:14:30;101559.88;;;17.03;100.00
42111;BME280;27766;52.174;5.456;2023-08-07T12:17:00;101558.97;;;16.95;100.00
42111;BME280;27766;52.174;5.456;2023-08-07T12:19:36;101564.09;;;16.74;100.00
42111;BME280;27766;52.174;5.456;2023-08-07T12:22:06;101564.97;;;16.70;100.00
42111;BME280;27766;52.174;5.456;2023-08-07T12:24:35;101559.84;;;16.97;100.00
42111;BME280;27766;52.174;5.456;2023-08-07T12:27:04;101569.56;;;17.43;100.00
42111;BME280;27766;52.174;5.456;2023-08-07T12:29:32;101559.09;;;17.64;97.05
42111;BME280;27766;52.174;5.456;2023-08-07T12:31:59;101566.91;;;17.46;89.22
42111;BME280;27766;52.174;5.456;2023-08-07T12:34:28;101570.38;;;17.17;96.17
42111;BME280;27766;52.174;5.456;2023-08-07T12:36:58;101579.91;;;16.98;99.57
42111;BME280;27766;52.174;5.456;2023-08-07T12:39:26;101556.44;;;17.18;96.92
42111;BME280;27766;52.174;5.456;2023-08-07T12:41:56;101562.56;;;17.76;100.00
42111;BME280;27766;52.174;5.456;2023-08-07T12:44:28;101565.19;;;18.07;99.27
42111;BME280;27766;52.174;5.456;2023-08-07T12:46:55;101561.69;;;18.11;91.77
42111;BME280;27766;52.174;5.456;2023-08-07T12:49:23;101543.34;;;18.12;94.07
42111;BME280;27766;52.174;5.456;2023-08-07T12:51:51;101555.59;;;18.13;100.00
42111;BME280;27766;52.174;5.456;2023-08-07T12:54:18;101576.53;;;18.13;96.85
42111;BME280;27766;52.174;5.456;2023-08-07T12:56:46;101567.78;;;18.22;85.45
42111;BME280;27766;52.174;5.456;2023-08-07T12:59:13;101554.72;;;17.94;81.90